sensor_id;sensor_type;location;lat;lon;timestamp;P1;durP1;ratioP1;P2;durP2;ratioP2
47778;SDS011;33538;48.432;11.350;2023-05-10T00:00:12;1.00;;;0.90;;
47778;SDS011;33538;48.432;11.350;2023-05-10T00:02:40;1.25;;;0.90;;
47778;SDS011;33538;48.432;11.350;2023-05-10T00:05:08;0.80;;;0.65;;
47778;SDS011;33538;48.432;11.350;2023-05-10T00:07:35;2.72;;;0.90;;
47778;SDS011;33538;48.432;11.350;2023-05-10T00:10:03;1.20;;;0.75;;
47778;SDS011;33538;48.432;11.350;2023-05-10T00:12:30;1.25;;;1.02;;
47778;SDS011;33538;48.432;11.350;2023-05-10T00:14:57;0.70;;;0.70;;
47778;SDS011;33538;48.432;11.350;2023-05-10T00:17:24;0.88;;;0.70;;
47778;SDS011;33538;48.432;11.350;2023-05-10T00:19:50;1.08;;;0.88;;
47778;SDS011;33538;48.432;11.350;2023-05-10T00:22:17;2.67;;;1.10;;
47778;SDS011;33538;48.432;11.350;2023-05-10T00:24:44;1.00;;;0.90;;
47778;SDS011;33538;48.432;11.350;2023-05-10T00:27:12;1.17;;;0.90;;
47778;SDS011;33538;48.432;11.350;2023-05-10T00:29:39;0.80;;;0.80;;
47778;SDS011;33538;48.432;11.350;2023-05-10T00:32:05;1.15;;;0.82;;
47778;SDS011;33538;48.432;11.350;2023-05-10T00:34:32;0.75;;;0.75;;
47778;SDS011;33538;48.432;11.350;2023-05-10T00:36:59;1.25;;;1.00;;
47778;SDS011;33538;48.432;11.350;2023-05-10T00:39:26;1.10;;;1.00;;
47778;SDS011;33538;48.432;11.350;2023-05-10T00:41:53;0.88;;;0.88;;
47778;SDS011;33538;48.432;11.350;2023-05-10T00:44:21;1.10;;;0.88;;
47778;SDS011;33538;48.432;11.350;2023-05-10T00:46:47;1.17;;;1.00;;
47778;SDS011;33538;48.432;11.350;2023-05-10T00:49:15;5.68;;;1.00;;
47778;SDS011;33538;48.432;11.350;2023-05-10T00:51:42;1.05;;;0.93;;
47778;SDS011;33538;48.432;11.350;2023-05-10T00:54:09;1.17;;;1.08;;
47778;SDS011;33538;48.432;11.350;2023-05-10T00:56:38;1.65;;;0.90;;
47778;SDS011;33538;48.432;11.350;2023-05-10T00:59:05;0.90;;;0.80;;
47778;SDS011;33538;48.432;11.350;2023-05-10T01:01:34;1.33;;;1.15;;
47778;SDS011;33538;48.432;11.350;2023-05-10T01:04:01;1.25;;;0.95;;
47778;SDS011;33538;48.432;11.350;2023-05-10T01:06:28;1.40;;;0.93;;
47778;SDS011;33538;48.432;11.350;2023-05-10T01:08:55;1.33;;;1.10;;
47778;SDS011;33538;48.432;11.350;2023-05-10T01:11:22;1.88;;;0.90;;
47778;SDS011;33538;48.432;11.350;2023-05-10T01:13:52;1.00;;;0.90;;
47778;SDS011;33538;48.432;11.350;2023-05-10T01:22:29;1.17;;;0.90;;
47778;SDS011;33538;48.432;11.350;2023-05-10T01:25:18;1.17;;;1.08;;
47778;SDS011;33538;48.432;11.350;2023-05-10T01:28:15;0.60;;;0.55;;
47778;SDS011;33538;48.432;11.350;2023-05-10T01:31:08;0.90;;;0.90;;
47778;SDS011;33538;48.432;11.350;2023-05-10T01:33:51;1.17;;;0.98;;
47778;SDS011;33538;48.432;11.350;2023-05-10T01:36:23;0.90;;;0.73;;
47778;SDS011;33538;48.432;11.350;2023-05-10T01:38:58;1.88;;;1.13;;
47778;SDS011;33538;48.432;11.350;2023-05-10T01:41:36;0.80;;;0.80;;
47778;SDS011;33538;48.432;11.350;2023-05-10T01:44:10;1.10;;;0.90;;
47778;SDS011;33538;48.432;11.350;2023-05-10T01:46:43;0.75;;;0.73;;
47778;SDS011;33538;48.432;11.350;2023-05-10T01:49:19;3.80;;;0.80;;
47778;SDS011;33538;48.432;11.350;2023-05-10T01:51:50;1.00;;;0.60;;
47778;SDS011;33538;48.432;11.350;2023-05-10T01:54:20;1.33;;;0.80;;
47778;SDS011;33538;48.432;11.350;2023-05-10T01:56:50;1.13;;;0.88;;
47778;SDS011;33538;48.432;11.350;2023-05-10T01:59:21;0.82;;;0.70;;
47778;SDS011;33538;48.432;11.350;2023-05-10T02:01:54;0.98;;;0.88;;
47778;SDS011;33538;48.432;11.350;2023-05-10T02:04:24;0.80;;;0.60;;
47778;SDS011;33538;48.432;11.350;2023-05-10T02:06:53;1.40;;;0.73;;
47778;SDS011;33538;48.432;11.350;2023-05-10T02:09:21;0.90;;;0.80;;
47778;SDS011;33538;48.432;11.350;2023-05-10T02:11:49;0.88;;;0.65;;
47778;SDS011;33538;48.432;11.350;2023-05-10T02:14:16;0.60;;;0.60;;
47778;SDS011;33538;48.432;11.350;2023-05-10T02:16:45;0.60;;;0.60;;
47778;SDS011;33538;48.432;11.350;2023-05-10T02:19:13;0.60;;;0.50;;
47778;SDS011;33538;48.432;11.350;2023-05-10T02:21:42;0.80;;;0.77;;
47778;SDS011;33538;48.432;11.350;2023-05-10T02:24:10;0.70;;;0.70;;
47778;SDS011;33538;48.432;11.350;2023-05-10T02:26:39;0.80;;;0.80;;
47778;SDS011;33538;48.432;11.350;2023-05-10T02:29:08;0.65;;;0.65;;
47778;SDS011;33538;48.432;11.350;2023-05-10T02:31:35;0.73;;;0.70;;
47778;SDS011;33538;48.432;11.350;2023-05-10T02:34:02;0.80;;;0.80;;
47778;SDS011;33538;48.432;11.350;2023-05-10T02:36:31;0.65;;;0.50;;
47778;SDS011;33538;48.432;11.350;2023-05-10T02:39:00;0.70;;;0.70;;
47778;SDS011;33538;48.432;11.350;2023-05-10T02:41:28;0.70;;;0.70;;
47778;SDS011;33538;48.432;11.350;2023-05-10T02:43:59;0.73;;;0.73;;
47778;SDS011;33538;48.432;11.350;2023-05-10T02:46:28;2.00;;;0.75;;
47778;SDS011;33538;48.432;11.350;2023-05-10T02:48:55;1.05;;;0.77;;
47778;SDS011;33538;48.432;11.350;2023-05-10T02:51:23;1.00;;;0.75;;
47778;SDS011;33538;48.432;11.350;2023-05-10T02:53:54;0.70;;;0.70;;
47778;SDS011;33538;48.432;11.350;2023-05-10T02:56:25;1.08;;;0.85;;
47778;SDS011;33538;48.432;11.350;2023-05-10T02:58:55;0.65;;;0.63;;
47778;SDS011;33538;48.432;11.350;2023-05-10T03:01:22;0.60;;;0.60;;
47778;SDS011;33538;48.432;11.350;2023-05-10T03:03:49;0.55;;;0.55;;
47778;SDS011;33538;48.432;11.350;2023-05-10T03:06:15;0.75;;;0.75;;
47778;SDS011;33538;48.432;11.350;2023-05-10T03:08:42;0.75;;;0.57;;
47778;SDS011;33538;48.432;11.350;2023-05-10T03:11:16;0.63;;;0.63;;
47778;SDS011;33538;48.432;11.350;2023-05-10T03:13:56;4.57;;;0.75;;
47778;SDS011;33538;48.432;11.350;2023-05-10T03:16:35;0.60;;;0.60;;
47778;SDS011;33538;48.432;11.350;2023-05-10T03:19:11;0.75;;;0.55;;
47778;SDS011;33538;48.432;11.350;2023-05-10T03:21:43;0.73;;;0.70;;
47778;SDS011;33538;48.432;11.350;2023-05-10T03:26:46;0.65;;;0.60;;
47778;SDS011;33538;48.432;11.350;2023-05-10T03:29:14;0.45;;;0.45;;
47778;SDS011;33538;48.432;11.350;2023-05-10T03:31:43;0.52;;;0.30;;
47778;SDS011;33538;48.432;11.350;2023-05-10T03:34:10;0.57;;;0.50;;
47778;SDS011;33538;48.432;11.350;2023-05-10T03:36:37;0.40;;;0.40;;
47778;SDS011;33538;48.432;11.350;2023-05-10T03:39:03;2.58;;;0.47;;
47778;SDS011;33538;48.432;11.350;2023-05-10T03:41:30;0.43;;;0.43;;
47778;SDS011;33538;48.432;11.350;2023-05-10T03:43:58;0.30;;;0.30;;
47778;SDS011;33538;48.432;11.350;2023-05-10T03:46:25;0.60;;;0.60;;
47778;SDS011;33538;48.432;11.350;2023-05-10T03:48:52;0.68;;;0.50;;
47778;SDS011;33538;48.432;11.350;2023-05-10T03:51:19;0.60;;;0.52;;
47778;SDS011;33538;48.432;11.350;2023-05-10T03:53:45;0.90;;;0.40;;
47778;SDS011;33538;48.432;11.350;2023-05-10T03:56:12;0.40;;;0.40;;
47778;SDS011;33538;48.432;11.350;2023-05-10T03:58:39;0.88;;;0.50;;
47778;SDS011;33538;48.432;11.350;2023-05-10T04:01:07;0.30;;;0.30;;
47778;SDS011;33538;48.432;11.350;2023-05-10T04:03:34;0.40;;;0.40;;
47778;SDS011;33538;48.432;11.350;2023-05-10T04:06:01;0.43;;;0.43;;
47778;SDS011;33538;48.432;11.350;2023-05-10T04:08:28;0.40;;;0.38;;
47778;SDS011;33538;48.432;11.350;2023-05-10T04:11:04;0.73;;;0.40;;
47778;SDS011;33538;48.432;11.350;2023-05-10T04:13:31;0.40;;;0.40;;
47778;SDS011;33538;48.432;11.350;2023-05-10T04:15:58;0.55;;;0.50;;
47778;SDS011;33538;48.432;11.350;2023-05-10T04:18:26;0.55;;;0.30;;
47778;SDS011;33538;48.432;11.350;2023-05-10T04:20:53;4.32;;;0.60;;
47778;SDS011;33538;48.432;11.350;2023-05-10T04:23:19;0.63;;;0.30;;
47778;SDS011;33538;48.432;11.350;2023-05-10T04:25:46;0.00;;;0.00;;
47778;SDS011;33538;48.432;11.350;2023-05-10T04:28:13;0.20;;;0.20;;
47778;SDS011;33538;48.432;11.350;2023-05-10T04:30:40;0.10;;;0.10;;
47778;SDS011;33538;48.432;11.350;2023-05-10T04:33:06;0.10;;;0.10;;
47778;SDS011;33538;48.432;11.350;2023-05-10T04:35:35;1.00;;;0.10;;
47778;SDS011;33538;48.432;11.350;2023-05-10T04:38:02;0.10;;;0.10;;
47778;SDS011;33538;48.432;11.350;2023-05-10T04:40:29;0.20;;;0.20;;
47778;SDS011;33538;48.432;11.350;2023-05-10T04:42:55;0.10;;;0.10;;
47778;SDS011;33538;48.432;11.350;2023-05-10T04:45:22;0.15;;;0.15;;
47778;SDS011;33538;48.432;11.350;2023-05-10T04:47:49;0.17;;;0.17;;
47778;SDS011;33538;48.432;11.350;2023-05-10T04:50:16;0.10;;;0.10;;
47778;SDS011;33538;48.432;11.350;2023-05-10T04:52:44;0.10;;;0.10;;
47778;SDS011;33538;48.432;11.350;2023-05-10T04:55:11;1.45;;;0.17;;
47778;SDS011;33538;48.432;11.350;2023-05-10T04:57:38;0.10;;;0.10;;
47778;SDS011;33538;48.432;11.350;2023-05-10T05:00:05;0.20;;;0.15;;
47778;SDS011;33538;48.432;11.350;2023-05-10T05:02:32;0.20;;;0.20;;
47778;SDS011;33538;48.432;11.350;2023-05-10T05:04:59;0.25;;;0.25;;
47778;SDS011;33538;48.432;11.350;2023-05-10T05:07:26;0.17;;;0.10;;
47778;SDS011;33538;48.432;11.350;2023-05-10T05:09:54;0.15;;;0.15;;
47778;SDS011;33538;48.432;11.350;2023-05-10T05:12:21;0.60;;;0.30;;
47778;SDS011;33538;48.432;11.350;2023-05-10T05:14:48;0.20;;;0.20;;
47778;SDS011;33538;48.432;11.350;2023-05-10T05:17:14;0.10;;;0.10;;
47778;SDS011;33538;48.432;11.350;2023-05-10T05:19:41;0.30;;;0.30;;
47778;SDS011;33538;48.432;11.350;2023-05-10T05:22:08;0.50;;;0.30;;
47778;SDS011;33538;48.432;11.350;2023-05-10T05:24:35;0.30;;;0.30;;
47778;SDS011;33538;48.432;11.350;2023-05-10T05:27:03;0.20;;;0.20;;
47778;SDS011;33538;48.432;11.350;2023-05-10T05:29:30;0.93;;;0.38;;
47778;SDS011;33538;48.432;11.350;2023-05-10T05:31:57;0.30;;;0.30;;
47778;SDS011;33538;48.432;11.350;2023-05-10T05:34:24;0.65;;;0.55;;
47778;SDS011;33538;48.432;11.350;2023-05-10T05:36:50;0.57;;;0.38;;
47778;SDS011;33538;48.432;11.350;2023-05-10T05:39:17;2.25;;;0.40;;
47778;SDS011;33538;48.432;11.350;2023-05-10T05:41:44;2.42;;;0.52;;
47778;SDS011;33538;48.432;11.350;2023-05-10T05:44:12;0.50;;;0.40;;
47778;SDS011;33538;48.432;11.350;2023-05-10T05:46:39;0.98;;;0.60;;
47778;SDS011;33538;48.432;11.350;2023-05-10T05:49:05;0.30;;;0.30;;
47778;SDS011;33538;48.432;11.350;2023-05-10T05:51:32;0.40;;;0.40;;
47778;SDS011;33538;48.432;11.350;2023-05-10T05:53:59;0.47;;;0.40;;
47778;SDS011;33538;48.432;11.350;2023-05-10T05:56:26;1.35;;;0.65;;
47778;SDS011;33538;48.432;11.350;2023-05-10T05:58:52;0.30;;;0.30;;
47778;SDS011;33538;48.432;11.350;2023-05-10T06:01:21;2.05;;;0.50;;
47778;SDS011;33538;48.432;11.350;2023-05-10T06:03:47;0.55;;;0.55;;
47778;SDS011;33538;48.432;11.350;2023-05-10T06:06:17;1.20;;;0.60;;
47778;SDS011;33538;48.432;11.350;2023-05-10T06:08:44;0.50;;;0.50;;
47778;SDS011;33538;48.432;11.350;2023-05-10T06:11:11;1.35;;;0.57;;
47778;SDS011;33538;48.432;11.350;2023-05-10T06:13:38;0.68;;;0.57;;
47778;SDS011;33538;48.432;11.350;2023-05-10T06:16:05;1.88;;;0.60;;
47778;SDS011;33538;48.432;11.350;2023-05-10T06:18:33;0.68;;;0.63;;
47778;SDS011;33538;48.432;11.350;2023-05-10T06:21:00;1.63;;;0.63;;
47778;SDS011;33538;48.432;11.350;2023-05-10T06:23:27;0.47;;;0.47;;
47778;SDS011;33538;48.432;11.350;2023-05-10T06:25:53;0.80;;;0.70;;
47778;SDS011;33538;48.432;11.350;2023-05-10T06:28:20;0.70;;;0.70;;
47778;SDS011;33538;48.432;11.350;2023-05-10T06:30:47;2.28;;;0.73;;
47778;SDS011;33538;48.432;11.350;2023-05-10T06:33:14;1.40;;;0.85;;
47778;SDS011;33538;48.432;11.350;2023-05-10T06:35:42;1.95;;;0.90;;
47778;SDS011;33538;48.432;11.350;2023-05-10T06:38:08;0.70;;;0.70;;
47778;SDS011;33538;48.432;11.350;2023-05-10T06:40:35;0.90;;;0.88;;
47778;SDS011;33538;48.432;11.350;2023-05-10T06:43:02;2.03;;;0.90;;
47778;SDS011;33538;48.432;11.350;2023-05-10T06:45:29;1.35;;;0.63;;
47778;SDS011;33538;48.432;11.350;2023-05-10T06:47:56;1.15;;;0.85;;
47778;SDS011;33538;48.432;11.350;2023-05-10T06:50:22;0.80;;;0.75;;
47778;SDS011;33538;48.432;11.350;2023-05-10T06:52:51;0.98;;;0.82;;
47778;SDS011;33538;48.432;11.350;2023-05-10T06:55:18;1.00;;;0.90;;
47778;SDS011;33538;48.432;11.350;2023-05-10T06:57:45;1.05;;;0.95;;
47778;SDS011;33538;48.432;11.350;2023-05-10T07:00:12;0.82;;;0.77;;
47778;SDS011;33538;48.432;11.350;2023-05-10T07:02:40;0.80;;;0.80;;
47778;SDS011;33538;48.432;11.350;2023-05-10T07:05:07;1.20;;;0.90;;
47778;SDS011;33538;48.432;11.350;2023-05-10T07:07:34;1.80;;;0.77;;
47778;SDS011;33538;48.432;11.350;2023-05-10T07:10:02;0.77;;;0.70;;
47778;SDS011;33538;48.432;11.350;2023-05-10T07:12:30;1.13;;;0.90;;
47778;SDS011;33538;48.432;11.350;2023-05-10T07:14:56;0.90;;;0.80;;
47778;SDS011;33538;48.432;11.350;2023-05-10T07:17:23;0.90;;;0.80;;
47778;SDS011;33538;48.432;11.350;2023-05-10T07:19:50;0.70;;;0.70;;
47778;SDS011;33538;48.432;11.350;2023-05-10T07:22:17;1.30;;;1.20;;
47778;SDS011;33538;48.432;11.350;2023-05-10T07:24:44;0.70;;;0.70;;
47778;SDS011;33538;48.432;11.350;2023-05-10T07:27:12;2.53;;;0.80;;
47778;SDS011;33538;48.432;11.350;2023-05-10T07:29:39;1.38;;;1.10;;
47778;SDS011;33538;48.432;11.350;2023-05-10T07:32:06;1.48;;;0.70;;
47778;SDS011;33538;48.432;11.350;2023-05-10T07:34:33;0.95;;;0.70;;
47778;SDS011;33538;48.432;11.350;2023-05-10T07:37:00;1.95;;;0.90;;
47778;SDS011;33538;48.432;11.350;2023-05-10T07:39:27;0.73;;;0.73;;
47778;SDS011;33538;48.432;11.350;2023-05-10T07:41:54;0.98;;;0.70;;
47778;SDS011;33538;48.432;11.350;2023-05-10T07:44:22;0.60;;;0.60;;
47778;SDS011;33538;48.432;11.350;2023-05-10T07:46:49;1.00;;;0.73;;
47778;SDS011;33538;48.432;11.350;2023-05-10T07:49:16;1.00;;;0.80;;
47778;SDS011;33538;48.432;11.350;2023-05-10T07:51:47;0.70;;;0.70;;
47778;SDS011;33538;48.432;11.350;2023-05-10T07:54:13;1.08;;;0.70;;
47778;SDS011;33538;48.432;11.350;2023-05-10T07:56:40;1.00;;;0.60;;
47778;SDS011;33538;48.432;11.350;2023-05-10T07:59:07;0.60;;;0.60;;
47778;SDS011;33538;48.432;11.350;2023-05-10T08:01:39;2.55;;;0.85;;
47778;SDS011;33538;48.432;11.350;2023-05-10T08:04:06;1.67;;;0.75;;
47778;SDS011;33538;48.432;11.350;2023-05-10T08:06:33;1.73;;;1.00;;
47778;SDS011;33538;48.432;11.350;2023-05-10T08:08:59;0.80;;;0.80;;
47778;SDS011;33538;48.432;11.350;2023-05-10T08:11:26;0.75;;;0.60;;
47778;SDS011;33538;48.432;11.350;2023-05-10T08:13:53;0.80;;;0.80;;
47778;SDS011;33538;48.432;11.350;2023-05-10T08:16:20;0.63;;;0.60;;
47778;SDS011;33538;48.432;11.350;2023-05-10T08:18:49;1.35;;;0.90;;
47778;SDS011;33538;48.432;11.350;2023-05-10T08:21:16;1.25;;;0.80;;
47778;SDS011;33538;48.432;11.350;2023-05-10T08:23:43;1.58;;;0.75;;
47778;SDS011;33538;48.432;11.350;2023-05-10T08:26:10;0.70;;;0.70;;
47778;SDS011;33538;48.432;11.350;2023-05-10T08:28:37;1.15;;;0.90;;
47778;SDS011;33538;48.432;11.350;2023-05-10T08:31:04;1.50;;;1.10;;
47778;SDS011;33538;48.432;11.350;2023-05-10T08:33:31;2.38;;;0.70;;
47778;SDS011;33538;48.432;11.350;2023-05-10T08:35:59;0.90;;;0.80;;
47778;SDS011;33538;48.432;11.350;2023-05-10T08:38:26;1.80;;;0.80;;
47778;SDS011;33538;48.432;11.350;2023-05-10T08:40:53;1.02;;;0.93;;
47778;SDS011;33538;48.432;11.350;2023-05-10T08:43:21;1.15;;;1.05;;
47778;SDS011;33538;48.432;11.350;2023-05-10T08:45:50;0.90;;;0.80;;
47778;SDS011;33538;48.432;11.350;2023-05-10T08:48:20;0.90;;;0.80;;
47778;SDS011;33538;48.432;11.350;2023-05-10T08:50:49;0.85;;;0.80;;
47778;SDS011;33538;48.432;11.350;2023-05-10T08:53:20;0.55;;;0.55;;
47778;SDS011;33538;48.432;11.350;2023-05-10T08:55:50;0.80;;;0.80;;
47778;SDS011;33538;48.432;11.350;2023-05-10T08:58:17;3.17;;;1.00;;
47778;SDS011;33538;48.432;11.350;2023-05-10T09:00:45;1.00;;;0.80;;
47778;SDS011;33538;48.432;11.350;2023-05-10T09:03:13;0.88;;;0.73;;
47778;SDS011;33538;48.432;11.350;2023-05-10T09:05:40;0.60;;;0.60;;
47778;SDS011;33538;48.432;11.350;2023-05-10T09:08:07;4.78;;;0.80;;
47778;SDS011;33538;48.432;11.350;2023-05-10T09:10:36;1.30;;;1.00;;
47778;SDS011;33538;48.432;11.350;2023-05-10T09:13:04;1.27;;;0.93;;
47778;SDS011;33538;48.432;11.350;2023-05-10T09:15:33;0.93;;;0.80;;
47778;SDS011;33538;48.432;11.350;2023-05-10T09:18:00;1.38;;;1.00;;
47778;SDS011;33538;48.432;11.350;2023-05-10T09:20:27;1.83;;;1.20;;
47778;SDS011;33538;48.432;11.350;2023-05-10T09:22:54;1.35;;;1.00;;
47778;SDS011;33538;48.432;11.350;2023-05-10T09:25:21;1.42;;;1.10;;
47778;SDS011;33538;48.432;11.350;2023-05-10T09:27:49;3.33;;;0.93;;
47778;SDS011;33538;48.432;11.350;2023-05-10T09:30:16;1.02;;;0.93;;
47778;SDS011;33538;48.432;11.350;2023-05-10T09:32:48;1.25;;;1.08;;
47778;SDS011;33538;48.432;11.350;2023-05-10T09:35:16;1.52;;;0.90;;
47778;SDS011;33538;48.432;11.350;2023-05-10T09:37:45;1.08;;;0.93;;
47778;SDS011;33538;48.432;11.350;2023-05-10T09:40:14;3.90;;;0.90;;
47778;SDS011;33538;48.432;11.350;2023-05-10T09:42:41;0.90;;;0.90;;
47778;SDS011;33538;48.432;11.350;2023-05-10T09:45:17;1.17;;;0.82;;
47778;SDS011;33538;48.432;11.350;2023-05-10T09:47:45;1.23;;;0.90;;
47778;SDS011;33538;48.432;11.350;2023-05-10T09:50:12;1.10;;;1.00;;
47778;SDS011;33538;48.432;11.350;2023-05-10T09:52:48;0.98;;;0.70;;
47778;SDS011;33538;48.432;11.350;2023-05-10T09:55:17;1.92;;;0.90;;
47778;SDS011;33538;48.432;11.350;2023-05-10T09:57:45;0.85;;;0.80;;
47778;SDS011;33538;48.432;11.350;2023-05-10T10:00:17;1.00;;;0.90;;
47778;SDS011;33538;48.432;11.350;2023-05-10T10:02:46;0.90;;;0.80;;
47778;SDS011;33538;48.432;11.350;2023-05-10T10:05:14;1.65;;;1.05;;
47778;SDS011;33538;48.432;11.350;2023-05-10T10:07:41;1.33;;;0.90;;
47778;SDS011;33538;48.432;11.350;2023-05-10T10:10:08;1.23;;;0.80;;
47778;SDS011;33538;48.432;11.350;2023-05-10T10:12:35;1.85;;;0.80;;
47778;SDS011;33538;48.432;11.350;2023-05-10T10:15:02;0.85;;;0.70;;
47778;SDS011;33538;48.432;11.350;2023-05-10T10:17:31;1.30;;;0.75;;
47778;SDS011;33538;48.432;11.350;2023-05-10T10:20:02;0.90;;;0.73;;
47778;SDS011;33538;48.432;11.350;2023-05-10T10:22:29;0.70;;;0.70;;
47778;SDS011;33538;48.432;11.350;2023-05-10T10:24:56;0.60;;;0.60;;
47778;SDS011;33538;48.432;11.350;2023-05-10T10:27:23;0.70;;;0.70;;
47778;SDS011;33538;48.432;11.350;2023-05-10T10:29:59;1.48;;;0.73;;
47778;SDS011;33538;48.432;11.350;2023-05-10T10:32:35;0.82;;;0.70;;
47778;SDS011;33538;48.432;11.350;2023-05-10T10:35:21;1.13;;;0.70;;
47778;SDS011;33538;48.432;11.350;2023-05-10T10:37:50;1.33;;;0.55;;
47778;SDS011;33538;48.432;11.350;2023-05-10T10:40:23;1.42;;;0.73;;
47778;SDS011;33538;48.432;11.350;2023-05-10T10:45:18;0.50;;;0.50;;
47778;SDS011;33538;48.432;11.350;2023-05-10T10:47:47;0.90;;;0.77;;
47778;SDS011;33538;48.432;11.350;2023-05-10T10:50:14;1.40;;;0.60;;
47778;SDS011;33538;48.432;11.350;2023-05-10T10:52:41;0.65;;;0.65;;
47778;SDS011;33538;48.432;11.350;2023-05-10T10:55:09;0.68;;;0.65;;
47778;SDS011;33538;48.432;11.350;2023-05-10T10:57:43;0.88;;;0.70;;
47778;SDS011;33538;48.432;11.350;2023-05-10T11:00:25;1.42;;;0.90;;
47778;SDS011;33538;48.432;11.350;2023-05-10T11:02:55;1.73;;;0.90;;
47778;SDS011;33538;48.432;11.350;2023-05-10T11:05:34;2.00;;;0.75;;
47778;SDS011;33538;48.432;11.350;2023-05-10T11:08:10;1.77;;;0.70;;
47778;SDS011;33538;48.432;11.350;2023-05-10T11:10:38;0.90;;;0.70;;
47778;SDS011;33538;48.432;11.350;2023-05-10T11:13:06;1.52;;;1.08;;
47778;SDS011;33538;48.432;11.350;2023-05-10T11:15:35;1.20;;;1.00;;
47778;SDS011;33538;48.432;11.350;2023-05-10T11:18:19;1.10;;;0.75;;
47778;SDS011;33538;48.432;11.350;2023-05-10T11:20:52;1.70;;;1.00;;
47778;SDS011;33538;48.432;11.350;2023-05-10T11:23:22;2.42;;;0.82;;
47778;SDS011;33538;48.432;11.350;2023-05-10T11:25:49;1.23;;;1.00;;
47778;SDS011;33538;48.432;11.350;2023-05-10T11:28:16;1.83;;;1.00;;
47778;SDS011;33538;48.432;11.350;2023-05-10T11:30:44;1.17;;;0.93;;
47778;SDS011;33538;48.432;11.350;2023-05-10T11:33:14;1.35;;;1.02;;
47778;SDS011;33538;48.432;11.350;2023-05-10T11:35:43;2.70;;;1.00;;
47778;SDS011;33538;48.432;11.350;2023-05-10T11:38:10;7.63;;;1.17;;
47778;SDS011;33538;48.432;11.350;2023-05-10T11:40:38;1.50;;;1.02;;
47778;SDS011;33538;48.432;11.350;2023-05-10T11:43:06;1.05;;;0.95;;
47778;SDS011;33538;48.432;11.350;2023-05-10T11:45:35;2.22;;;0.88;;
47778;SDS011;33538;48.432;11.350;2023-05-10T11:48:02;1.23;;;0.70;;
47778;SDS011;33538;48.432;11.350;2023-05-10T11:50:30;0.95;;;0.60;;
47778;SDS011;33538;48.432;11.350;2023-05-10T11:52:58;0.40;;;0.40;;
47778;SDS011;33538;48.432;11.350;2023-05-10T11:55:25;2.20;;;0.82;;
47778;SDS011;33538;48.432;11.350;2023-05-10T11:57:52;0.68;;;0.60;;
47778;SDS011;33538;48.432;11.350;2023-05-10T12:00:19;0.73;;;0.50;;
47778;SDS011;33538;48.432;11.350;2023-05-10T12:02:46;0.75;;;0.70;;
47778;SDS011;33538;48.432;11.350;2023-05-10T12:05:14;2.67;;;0.82;;
47778;SDS011;33538;48.432;11.350;2023-05-10T12:07:41;1.15;;;0.60;;
47778;SDS011;33538;48.432;11.350;2023-05-10T12:10:10;0.60;;;0.60;;
47778;SDS011;33538;48.432;11.350;2023-05-10T12:12:38;2.03;;;0.50;;
47778;SDS011;33538;48.432;11.350;2023-05-10T12:15:06;1.02;;;0.50;;
47778;SDS011;33538;48.432;11.350;2023-05-10T12:17:37;1.55;;;0.50;;
47778;SDS011;33538;48.432;11.350;2023-05-10T12:20:15;0.30;;;0.30;;
47778;SDS011;33538;48.432;11.350;2023-05-10T12:22:44;0.60;;;0.50;;
47778;SDS011;33538;48.432;11.350;2023-05-10T12:25:13;0.38;;;0.38;;
47778;SDS011;33538;48.432;11.350;2023-05-10T12:27:41;0.45;;;0.38;;
47778;SDS011;33538;48.432;11.350;2023-05-10T12:30:18;0.85;;;0.68;;
47778;SDS011;33538;48.432;11.350;2023-05-10T12:32:45;0.52;;;0.40;;
47778;SDS011;33538;48.432;11.350;2023-05-10T12:35:12;0.40;;;0.40;;
47778;SDS011;33538;48.432;11.350;2023-05-10T12:37:39;0.35;;;0.35;;
47778;SDS011;33538;48.432;11.350;2023-05-10T12:40:06;1.38;;;0.60;;
47778;SDS011;33538;48.432;11.350;2023-05-10T12:42:36;0.35;;;0.35;;
47778;SDS011;33538;48.432;11.350;2023-05-10T12:45:05;1.33;;;0.60;;
47778;SDS011;33538;48.432;11.350;2023-05-10T12:47:32;0.70;;;0.70;;
47778;SDS011;33538;48.432;11.350;2023-05-10T12:50:00;1.08;;;0.68;;
47778;SDS011;33538;48.432;11.350;2023-05-10T12:52:28;0.70;;;0.57;;
47778;SDS011;33538;48.432;11.350;2023-05-10T12:54:55;0.65;;;0.65;;
47778;SDS011;33538;48.432;11.350;2023-05-10T12:57:22;0.68;;;0.65;;
47778;SDS011;33538;48.432;11.350;2023-05-10T12:59:50;0.73;;;0.70;;
47778;SDS011;33538;48.432;11.350;2023-05-10T13:02:19;1.00;;;0.80;;
47778;SDS011;33538;48.432;11.350;2023-05-10T13:04:46;0.90;;;0.60;;
47778;SDS011;33538;48.432;11.350;2023-05-10T13:07:16;1.25;;;0.90;;
47778;SDS011;33538;48.432;11.350;2023-05-10T13:09:42;1.15;;;0.63;;
47778;SDS011;33538;48.432;11.350;2023-05-10T13:12:09;1.17;;;0.68;;
47778;SDS011;33538;48.432;11.350;2023-05-10T13:14:36;1.08;;;0.80;;
47778;SDS011;33538;48.432;11.350;2023-05-10T13:17:04;0.70;;;0.70;;
47778;SDS011;33538;48.432;11.350;2023-05-10T13:19:31;0.68;;;0.68;;
47778;SDS011;33538;48.432;11.350;2023-05-10T13:21:58;1.50;;;1.05;;
47778;SDS011;33538;48.432;11.350;2023-05-10T13:24:24;1.20;;;0.85;;
47778;SDS011;33538;48.432;11.350;2023-05-10T13:26:51;0.85;;;0.80;;
47778;SDS011;33538;48.432;11.350;2023-05-10T13:29:18;2.03;;;0.77;;
47778;SDS011;33538;48.432;11.350;2023-05-10T13:31:45;0.50;;;0.50;;
47778;SDS011;33538;48.432;11.350;2023-05-10T13:34:13;1.77;;;0.60;;
47778;SDS011;33538;48.432;11.350;2023-05-10T13:36:40;1.25;;;0.80;;
47778;SDS011;33538;48.432;11.350;2023-05-10T13:39:07;0.50;;;0.50;;
47778;SDS011;33538;48.432;11.350;2023-05-10T13:41:33;0.80;;;0.55;;
47778;SDS011;33538;48.432;11.350;2023-05-10T13:44:00;0.47;;;0.47;;
47778;SDS011;33538;48.432;11.350;2023-05-10T13:46:28;0.43;;;0.43;;
47778;SDS011;33538;48.432;11.350;2023-05-10T13:48:55;0.75;;;0.50;;
47778;SDS011;33538;48.432;11.350;2023-05-10T13:51:23;0.47;;;0.47;;
47778;SDS011;33538;48.432;11.350;2023-05-10T13:53:50;0.60;;;0.60;;
47778;SDS011;33538;48.432;11.350;2023-05-10T13:56:17;1.13;;;0.90;;
47778;SDS011;33538;48.432;11.350;2023-05-10T13:58:44;0.50;;;0.50;;
47778;SDS011;33538;48.432;11.350;2023-05-10T14:01:10;0.68;;;0.68;;
47778;SDS011;33538;48.432;11.350;2023-05-10T14:03:37;1.70;;;0.80;;
47778;SDS011;33538;48.432;11.350;2023-05-10T14:06:04;1.50;;;0.70;;
47778;SDS011;33538;48.432;11.350;2023-05-10T14:08:32;0.30;;;0.30;;
47778;SDS011;33538;48.432;11.350;2023-05-10T14:10:59;1.25;;;0.60;;
47778;SDS011;33538;48.432;11.350;2023-05-10T14:13:26;0.90;;;0.57;;
47778;SDS011;33538;48.432;11.350;2023-05-10T14:15:53;0.57;;;0.50;;
47778;SDS011;33538;48.432;11.350;2023-05-10T14:18:20;0.70;;;0.60;;
47778;SDS011;33538;48.432;11.350;2023-05-10T14:20:47;3.00;;;0.25;;
47778;SDS011;33538;48.432;11.350;2023-05-10T14:23:14;0.40;;;0.28;;
47778;SDS011;33538;48.432;11.350;2023-05-10T14:25:42;0.52;;;0.40;;
47778;SDS011;33538;48.432;11.350;2023-05-10T14:28:09;0.50;;;0.40;;
47778;SDS011;33538;48.432;11.350;2023-05-10T14:30:36;0.40;;;0.40;;
47778;SDS011;33538;48.432;11.350;2023-05-10T14:33:03;0.60;;;0.50;;
47778;SDS011;33538;48.432;11.350;2023-05-10T14:35:30;0.40;;;0.40;;
47778;SDS011;33538;48.432;11.350;2023-05-10T14:37:56;0.50;;;0.50;;
47778;SDS011;33538;48.432;11.350;2023-05-10T14:40:23;0.65;;;0.63;;
47778;SDS011;33538;48.432;11.350;2023-05-10T14:42:51;1.42;;;0.60;;
47778;SDS011;33538;48.432;11.350;2023-05-10T14:45:18;1.50;;;0.88;;
47778;SDS011;33538;48.432;11.350;2023-05-10T14:47:45;0.88;;;0.88;;
47778;SDS011;33538;48.432;11.350;2023-05-10T14:50:12;1.00;;;0.68;;